Time;durP1;ratioP1;P1;durP2;ratioP2;P2;SDS_P1;SDS_P2;PMS_P1;PMS_P2;Temp;Humidity;BMP_temperature;BMP_pressure;BME280_temperature;BME280_humidity;BME280_pressure;Samples;Min_cycle;Max_cycle;Signal;HPM_P1;HPM_P2
2021/09/09 00:00:54;;;;;;;1.70;1.40;;;27.40;99.90;;;;;;6220142;23;20192;-90
2021/09/09 00:03:26;;;;;;;1.80;1.70;;;27.60;99.90;;;;;;6240940;23;20184;-89
2021/09/09 00:05:58;;;;;;;1.77;1.67;;;27.30;99.90;;;;;;6214782;23;20359;-90
2021/09/09 00:08:30;;;;;;;2.83;1.53;;;27.30;99.90;;;;;;6239044;23;20307;-89
2021/09/09 00:11:01;;;;;;;1.80;1.70;;;27.30;99.90;;;;;;6237292;23;20177;-90
2021/09/09 00:13:34;;;;;;;3.13;1.60;;;27.30;99.90;;;;;;6212534;23;20172;-90
2021/09/09 00:16:08;;;;;;;2.93;1.70;;;26.90;99.90;;;;;;6240964;23;20172;-89
2021/09/09 00:18:40;;;;;;;2.07;1.93;;;26.90;99.90;;;;;;6212940;23;20226;-88
2021/09/09 00:21:12;;;;;;;3.20;1.87;;;27.00;99.90;;;;;;6242338;23;20601;-88
2021/09/09 00:23:43;;;;;;;4.63;1.97;;;27.30;99.90;;;;;;6237484;23;20172;-88
2021/09/09 00:26:14;;;;;;;2.03;1.50;;;27.40;99.90;;;;;;6223719;23;20712;-88
2021/09/09 00:28:48;;;;;;;3.93;1.60;;;27.40;99.90;;;;;;6227105;23;20181;-90
2021/09/09 00:31:18;;;;;;;3.23;1.77;;;27.40;99.90;;;;;;6222785;23;20477;-89
2021/09/09 00:33:49;;;;;;;2.00;1.80;;;27.40;99.90;;;;;;6220701;23;20176;-88
2021/09/09 00:36:21;;;;;;;2.67;1.83;;;27.70;99.90;;;;;;6193597;23;20670;-88
2021/09/09 00:38:53;;;;;;;2.10;1.80;;;27.90;99.90;;;;;;6224068;23;20173;-88
2021/09/09 00:41:24;;;;;;;1.60;1.50;;;28.10;99.90;;;;;;6210007;23;20175;-89
2021/09/09 00:43:57;;;;;;;8.50;2.40;;;28.20;99.90;;;;;;6227284;23;20169;-89
2021/09/09 00:46:31;;;;;;;196.23;15.60;;;28.30;99.90;;;;;;6231131;23;20580;-88
2021/09/09 00:49:03;;;;;;;7.97;2.17;;;28.20;99.90;;;;;;6236332;23;20157;-89
2021/09/09 00:51:35;;;;;;;6.90;2.10;;;28.20;99.90;;;;;;6237862;23;20173;-89
2021/09/09 00:54:06;;;;;;;5.20;1.90;;;28.10;99.90;;;;;;6210558;23;20169;-89
2021/09/09 00:56:37;;;;;;;3.37;1.80;;;27.90;99.90;;;;;;6235564;23;20711;-89
2021/09/09 00:59:13;;;;;;;3.90;1.90;;;27.80;99.90;;;;;;6239480;23;20160;-89
2021/09/09 01:01:47;;;;;;;2.90;1.80;;;27.50;99.90;;;;;;6239054;23;20168;-89
2021/09/09 01:04:19;;;;;;;1.70;1.57;;;27.40;99.90;;;;;;6229340;23;20176;-88
2021/09/09 01:06:51;;;;;;;1.80;1.70;;;27.20;99.90;;;;;;6220042;23;20239;-89
2021/09/09 01:09:22;;;;;;;3.37;1.90;;;27.00;99.90;;;;;;6220488;23;20172;-89
2021/09/09 01:11:53;;;;;;;3.53;1.90;;;26.90;99.90;;;;;;6220057;23;20180;-89
2021/09/09 01:14:26;;;;;;;2.23;1.73;;;26.70;99.90;;;;;;6193286;23;20204;-89
2021/09/09 01:16:58;;;;;;;3.33;2.10;;;26.60;99.90;;;;;;6218246;23;20626;-88
2021/09/09 01:19:28;;;;;;;4.13;1.60;;;26.70;99.90;;;;;;6220253;23;20203;-89
2021/09/09 01:22:00;;;;;;;1.70;1.60;;;26.70;99.90;;;;;;6219597;23;20195;-89
2021/09/09 01:24:33;;;;;;;4.20;1.60;;;26.60;99.90;;;;;;6220091;23;20184;-90
2021/09/09 01:27:06;;;;;;;3.17;1.80;;;26.60;99.90;;;;;;6218630;23;20189;-89
2021/09/09 01:29:40;;;;;;;2.50;1.83;;;26.50;99.90;;;;;;6218709;23;20177;-89
2021/09/09 01:32:12;;;;;;;2.50;1.50;;;26.50;99.90;;;;;;6224779;23;20160;-89
2021/09/09 01:34:44;;;;;;;2.77;1.53;;;26.30;99.90;;;;;;6235908;23;20169;-90
2021/09/09 01:37:15;;;;;;;1.83;1.60;;;26.00;99.90;;;;;;6221636;23;20223;-89
2021/09/09 01:39:49;;;;;;;2.97;1.77;;;25.50;99.90;;;;;;6225021;23;20187;-90
2021/09/09 01:42:21;;;;;;;5.43;2.10;;;25.40;99.90;;;;;;6230695;23;20180;-94
2021/09/09 01:44:52;;;;;;;2.67;1.60;;;25.10;99.90;;;;;;6227037;23;20256;-94
2021/09/09 01:50:09;;;;;;;1.87;1.77;;;24.80;99.90;;;;;;6229108;23;20180;-94
2021/09/09 01:52:41;;;;;;;2.83;1.80;;;24.60;99.90;;;;;;6219517;23;20168;-93
2021/09/09 01:55:15;;;;;;;3.07;1.80;;;24.50;99.90;;;;;;6231782;23;20223;-94
2021/09/09 01:57:46;;;;;;;3.10;1.70;;;24.50;99.90;;;;;;6208876;23;20179;-95
2021/09/09 02:00:18;;;;;;;2.20;1.83;;;24.30;99.90;;;;;;6234018;23;20230;-93
2021/09/09 02:02:49;;;;;;;2.30;1.80;;;24.10;99.90;;;;;;6221243;23;20176;-93
2021/09/09 02:05:20;;;;;;;2.60;1.70;;;24.00;99.90;;;;;;6219618;23;20173;-93
2021/09/09 02:07:51;;;;;;;4.03;1.80;;;23.90;99.90;;;;;;6223485;23;20208;-94
2021/09/09 02:10:23;;;;;;;1.97;1.40;;;23.70;99.90;;;;;;6221715;23;20169;-94
2021/09/09 02:12:54;;;;;;;4.23;2.20;;;23.50;99.90;;;;;;6231235;23;20188;-94
2021/09/09 02:15:27;;;;;;;1.70;1.60;;;23.40;99.90;;;;;;6235148;23;20169;-94
2021/09/09 02:17:58;;;;;;;2.03;1.83;;;23.30;99.90;;;;;;6232766;23;20185;-94
2021/09/09 02:20:30;;;;;;;2.10;1.80;;;23.20;99.90;;;;;;6225428;23;20176;-94
2021/09/09 02:23:02;;;;;;;3.00;2.07;;;23.20;99.90;;;;;;6229820;23;20211;-94
2021/09/09 02:25:38;;;;;;;2.47;2.00;;;23.10;99.90;;;;;;6238449;23;20165;-93
2021/09/09 02:28:10;;;;;;;1.80;1.70;;;23.00;99.90;;;;;;6240676;23;20224;-92
2021/09/09 02:30:42;;;;;;;2.00;1.80;;;23.00;99.90;;;;;;6214777;23;20357;-94
2021/09/09 02:33:16;;;;;;;2.43;1.77;;;22.90;99.90;;;;;;6241257;23;20160;-95
2021/09/09 02:35:53;;;;;;;3.17;2.17;;;22.80;99.90;;;;;;6241002;23;20223;-94
2021/09/09 02:38:27;;;;;;;2.33;2.13;;;22.70;99.90;;;;;;6216087;23;20156;-93
2021/09/09 02:41:05;;;;;;;3.33;2.10;;;22.60;99.90;;;;;;6238104;23;20164;-92
2021/09/09 02:43:37;;;;;;;4.53;2.30;;;22.50;99.90;;;;;;6215201;23;20171;-92
2021/09/09 02:46:11;;;;;;;3.87;2.60;;;22.40;99.90;;;;;;6238084;23;20176;-92
2021/09/09 02:48:42;;;;;;;2.33;2.13;;;22.30;99.90;;;;;;6240204;23;20172;-93
2021/09/09 02:51:14;;;;;;;3.73;2.53;;;22.20;99.90;;;;;;6239589;23;20188;-92
2021/09/09 02:53:45;;;;;;;2.77;2.40;;;22.10;99.90;;;;;;6213956;23;20179;-93
2021/09/09 02:58:57;;;;;;;3.80;2.97;;;21.90;99.90;;;;;;6237046;23;20188;-93
2021/09/09 03:01:42;;;;;;;3.37;2.97;;;21.90;99.90;;;;;;6234997;22;20207;-93
2021/09/09 03:04:15;;;;;;;3.33;2.73;;;21.80;99.90;;;;;;6228321;23;20254;-91
2021/09/09 03:06:47;;;;;;;3.53;3.00;;;21.80;99.90;;;;;;6240105;23;20237;-93
2021/09/09 03:09:19;;;;;;;3.83;3.20;;;21.70;99.90;;;;;;6241567;23;20172;-93
2021/09/09 03:11:53;;;;;;;3.73;3.07;;;21.70;99.90;;;;;;6240784;23;20176;-90
2021/09/09 03:14:28;;;;;;;4.03;3.10;;;21.70;99.90;;;;;;6237589;23;20437;-92
2021/09/09 03:17:00;;;;;;;4.47;3.20;;;21.50;99.90;;;;;;6212662;23;20187;-93
2021/09/09 03:19:32;;;;;;;4.90;3.30;;;21.40;99.90;;;;;;6239258;23;20176;-93
2021/09/09 03:22:04;;;;;;;8.27;3.20;;;21.30;99.90;;;;;;6237787;23;20177;-93
2021/09/09 03:24:35;;;;;;;5.73;4.07;;;21.30;99.90;;;;;;6238859;23;20168;-92
2021/09/09 03:27:08;;;;;;;5.00;3.93;;;21.20;99.90;;;;;;6238934;23;20380;-92
2021/09/09 03:32:29;;;;;;;6.40;4.33;;;21.10;99.90;;;;;;6230294;22;20226;-93
2021/09/09 03:35:02;;;;;;;6.47;3.70;;;21.00;99.90;;;;;;6238347;23;20165;-93
2021/09/09 03:45:41;;;;;;;5.47;4.37;;;20.80;99.90;;;;;;6214844;23;20210;-93
2021/09/09 03:48:15;;;;;;;4.83;3.90;;;20.80;99.90;;;;;;6239385;23;20279;-93
2021/09/09 03:50:46;;;;;;;4.93;4.33;;;20.80;99.90;;;;;;6237305;23;20165;-92
2021/09/09 03:53:17;;;;;;;4.97;4.00;;;20.70;99.90;;;;;;6212910;23;20172;-92
2021/09/09 03:55:49;;;;;;;7.50;4.40;;;20.60;99.90;;;;;;6237159;23;20162;-93
2021/09/09 03:58:20;;;;;;;5.47;4.07;;;20.50;99.90;;;;;;6237254;23;20176;-92
2021/09/09 04:00:53;;;;;;;6.73;3.90;;;20.50;99.90;;;;;;6238251;23;20168;-93
2021/09/09 04:06:17;;;;;;;5.37;3.60;;;20.40;99.90;;;;;;6197993;23;20204;-92
2021/09/09 04:08:48;;;;;;;7.83;3.83;;;20.30;99.90;;;;;;6209027;23;20201;-93
2021/09/09 04:11:22;;;;;;;6.97;4.00;;;20.30;99.90;;;;;;6207280;23;20173;-93
2021/09/09 04:13:54;;;;;;;3.63;3.23;;;20.30;99.90;;;;;;6203588;23;20196;-93
2021/09/09 04:16:27;;;;;;;4.77;3.30;;;20.20;99.90;;;;;;6202250;23;20184;-92
2021/09/09 04:18:58;;;;;;;6.43;3.90;;;20.10;99.90;;;;;;6205509;23;20208;-93
2021/09/09 04:21:30;;;;;;;4.77;3.60;;;20.10;99.90;;;;;;6201435;23;20205;-92
2021/09/09 04:24:03;;;;;;;7.37;3.53;;;20.10;99.90;;;;;;6206601;23;20177;-94
2021/09/09 04:26:35;;;;;;;4.30;3.27;;;20.10;99.90;;;;;;6202480;23;20181;-91
2021/09/09 04:29:09;;;;;;;7.77;4.00;;;20.00;99.90;;;;;;6200099;23;20174;-92
2021/09/09 04:31:41;;;;;;;7.13;3.67;;;19.90;99.90;;;;;;6202420;23;20181;-91
2021/09/09 04:34:13;;;;;;;5.63;3.57;;;19.90;99.90;;;;;;6201742;23;20169;-91
2021/09/09 04:36:45;;;;;;;4.83;3.13;;;19.80;99.90;;;;;;6190791;23;20177;-93
2021/09/09 04:39:16;;;;;;;4.30;3.27;;;19.90;99.90;;;;;;6204057;23;20161;-92
2021/09/09 04:41:58;;;;;;;3.83;3.03;;;19.90;99.90;;;;;;6202380;23;20185;-92
2021/09/09 04:44:29;;;;;;;4.00;2.90;;;19.80;99.90;;;;;;6194150;23;20204;-92
2021/09/09 04:47:10;;;;;;;4.13;3.00;;;19.80;99.90;;;;;;6197899;23;20181;-93
2021/09/09 04:49:44;;;;;;;3.77;3.30;;;19.70;99.90;;;;;;6207438;23;20188;-91
2021/09/09 04:52:17;;;;;;;4.80;2.50;;;19.70;99.90;;;;;;6201300;23;20228;-93
2021/09/09 04:54:49;;;;;;;4.73;2.70;;;19.70;99.90;;;;;;6222580;22;20230;-92
2021/09/09 04:57:20;;;;;;;3.10;2.70;;;19.60;99.90;;;;;;6242682;23;20168;-93
2021/09/09 04:59:51;;;;;;;3.10;2.60;;;19.60;99.90;;;;;;6211640;23;20183;-92
2021/09/09 05:02:22;;;;;;;3.27;2.60;;;19.60;99.90;;;;;;6224077;23;20180;-93
2021/09/09 05:04:55;;;;;;;5.67;2.87;;;19.60;99.90;;;;;;6224578;23;20215;-93
2021/09/09 05:07:27;;;;;;;4.60;2.47;;;19.60;99.90;;;;;;6225767;23;20683;-92
2021/09/09 05:09:59;;;;;;;9.87;2.70;;;19.50;99.90;;;;;;6226556;23;20187;-93
2021/09/09 05:12:30;;;;;;;3.63;2.50;;;19.40;99.90;;;;;;6226233;23;20176;-93
2021/09/09 05:15:03;;;;;;;3.27;2.23;;;19.40;99.90;;;;;;6201309;23;20172;-92
2021/09/09 05:17:34;;;;;;;3.53;2.30;;;19.40;99.90;;;;;;6224669;23;20251;-92
2021/09/09 05:20:06;;;;;;;2.60;2.13;;;19.40;99.90;;;;;;6227940;23;20180;-92
2021/09/09 05:22:39;;;;;;;2.83;2.37;;;19.40;99.90;;;;;;6225809;23;20183;-93
2021/09/09 05:25:11;;;;;;;2.43;2.20;;;19.40;99.90;;;;;;6233477;23;20205;-92
2021/09/09 05:27:43;;;;;;;2.63;2.20;;;19.40;99.90;;;;;;6235422;23;20208;-92
2021/09/09 05:30:14;;;;;;;2.50;2.00;;;19.40;99.90;;;;;;6240435;23;20184;-93
2021/09/09 05:32:45;;;;;;;3.53;2.20;;;19.40;99.90;;;;;;6242056;23;20157;-93
2021/09/09 05:35:17;;;;;;;2.40;2.20;;;19.30;99.90;;;;;;6241720;23;20168;-93
2021/09/09 05:37:50;;;;;;;4.20;1.70;;;19.20;99.90;;;;;;6240400;23;20175;-93
2021/09/09 05:40:21;;;;;;;2.73;2.10;;;19.20;99.90;;;;;;6241361;23;20168;-92
2021/09/09 05:42:52;;;;;;;2.43;2.20;;;19.10;99.90;;;;;;6242889;23;20171;-93
2021/09/09 05:45:22;;;;;;;2.73;1.90;;;19.10;99.90;;;;;;6242136;23;20164;-93
2021/09/09 05:47:53;;;;;;;3.07;2.20;;;19.10;99.90;;;;;;6241781;23;20207;-91
2021/09/09 05:50:24;;;;;;;2.03;1.80;;;19.10;99.90;;;;;;6235510;23;20196;-92
2021/09/09 05:52:56;;;;;;;2.83;1.97;;;19.10;99.90;;;;;;6230200;23;20211;-93
2021/09/09 05:55:27;;;;;;;2.27;2.07;;;19.00;99.90;;;;;;6191936;23;20185;-92
2021/09/09 05:57:58;;;;;;;2.90;2.60;;;19.00;99.90;;;;;;6191467;23;20181;-93
2021/09/09 06:00:30;;;;;;;4.30;2.40;;;18.90;99.90;;;;;;6190357;23;20532;-91
2021/09/09 06:03:02;;;;;;;2.40;2.20;;;18.90;99.90;;;;;;6191138;23;20188;-92
2021/09/09 06:05:35;;;;;;;3.37;2.13;;;18.90;99.90;;;;;;6197244;23;20169;-95
2021/09/09 06:08:08;;;;;;;2.43;2.23;;;18.80;99.90;;;;;;6191846;23;20224;-92
2021/09/09 06:10:39;;;;;;;4.30;2.30;;;18.70;99.90;;;;;;6190407;23;20592;-92
2021/09/09 06:13:11;;;;;;;3.17;2.20;;;18.70;99.90;;;;;;6190908;23;20169;-92
2021/09/09 06:15:42;;;;;;;7.90;2.50;;;18.70;99.90;;;;;;6192220;23;20169;-93
2021/09/09 06:18:13;;;;;;;2.33;2.13;;;18.60;99.90;;;;;;6193182;23;20203;-93
2021/09/09 06:20:46;;;;;;;3.70;2.13;;;18.50;99.90;;;;;;6197482;23;20268;-93
2021/09/09 06:23:19;;;;;;;3.80;2.50;;;18.50;99.90;;;;;;6195413;23;20650;-93
2021/09/09 06:25:53;;;;;;;3.00;2.60;;;18.40;99.90;;;;;;6191584;23;20224;-93
2021/09/09 06:28:25;;;;;;;4.30;2.50;;;18.40;99.90;;;;;;6199534;23;20215;-93
2021/09/09 06:30:58;;;;;;;2.70;2.50;;;18.40;99.90;;;;;;6209561;23;20168;-92
2021/09/09 06:33:29;;;;;;;4.60;2.73;;;18.30;99.90;;;;;;6198863;23;20632;-94
2021/09/09 06:36:01;;;;;;;2.83;2.23;;;18.30;99.90;;;;;;6196605;23;20176;-90
2021/09/09 06:38:35;;;;;;;3.60;2.53;;;18.20;99.90;;;;;;6190541;23;20185;-93
2021/09/09 06:41:06;;;;;;;3.60;2.57;;;18.30;99.90;;;;;;6190254;23;20280;-92
2021/09/09 06:43:38;;;;;;;4.03;2.07;;;18.30;99.90;;;;;;6190076;23;20195;-92
2021/09/09 06:46:09;;;;;;;2.97;2.20;;;18.30;99.90;;;;;;6189495;23;20272;-93
2021/09/09 06:48:40;;;;;;;4.13;2.40;;;18.20;99.90;;;;;;6190396;23;20224;-92
2021/09/09 06:51:12;;;;;;;4.00;2.20;;;18.20;99.90;;;;;;6196455;23;20606;-91
2021/09/09 06:53:45;;;;;;;4.20;2.20;;;18.10;99.90;;;;;;6195434;23;20192;-92
2021/09/09 06:56:17;;;;;;;2.47;2.13;;;18.10;99.90;;;;;;6189634;23;20177;-92
2021/09/09 06:58:48;;;;;;;2.73;2.20;;;18.00;99.90;;;;;;6189936;23;20205;-92
2021/09/09 07:01:19;;;;;;;4.37;2.67;;;17.90;99.90;;;;;;6190193;23;20204;-92
2021/09/09 07:03:50;;;;;;;2.87;2.30;;;17.80;99.90;;;;;;6190061;23;20259;-92
2021/09/09 07:06:22;;;;;;;3.20;2.53;;;17.80;99.90;;;;;;6190353;23;20173;-91
2021/09/09 07:08:55;;;;;;;4.77;2.70;;;17.70;99.90;;;;;;6189978;23;20212;-92
2021/09/09 07:11:25;;;;;;;2.40;2.20;;;17.60;99.90;;;;;;6204561;23;20180;-91
2021/09/09 07:13:56;;;;;;;3.53;2.37;;;17.60;99.90;;;;;;6211383;23;20169;-91
2021/09/09 07:16:27;;;;;;;2.97;2.30;;;17.50;99.90;;;;;;6208943;23;20192;-92
2021/09/09 07:18:58;;;;;;;2.90;2.17;;;17.50;99.90;;;;;;6203439;23;20161;-92
2021/09/09 07:21:30;;;;;;;4.10;2.30;;;17.50;99.90;;;;;;6199871;23;20180;-91
2021/09/09 07:24:03;;;;;;;3.57;2.47;;;17.40;99.90;;;;;;6202921;23;20184;-91
2021/09/09 07:26:34;;;;;;;2.97;2.60;;;17.40;99.90;;;;;;6202390;23;20248;-93
2021/09/09 07:29:05;;;;;;;2.33;2.13;;;17.40;99.90;;;;;;6205210;23;20204;-93
2021/09/09 07:31:37;;;;;;;3.30;2.30;;;17.40;99.90;;;;;;6200500;23;20173;-93
2021/09/09 07:34:08;;;;;;;2.73;2.00;;;17.30;99.90;;;;;;6190066;23;20181;-93
2021/09/09 07:36:40;;;;;;;4.97;2.60;;;17.30;99.90;;;;;;6188834;23;20209;-93
2021/09/09 07:39:13;;;;;;;2.57;2.13;;;17.30;99.90;;;;;;6190632;23;20181;-91
2021/09/09 07:41:43;;;;;;;3.53;2.47;;;17.30;99.90;;;;;;6190070;23;20619;-92
2021/09/09 07:44:14;;;;;;;3.83;2.37;;;17.30;99.90;;;;;;6189723;23;20169;-91
2021/09/09 07:46:45;;;;;;;2.60;2.40;;;17.20;99.90;;;;;;6187058;23;20169;-92
2021/09/09 07:49:16;;;;;;;6.60;2.50;;;17.20;99.90;;;;;;6187635;23;20224;-91
2021/09/09 07:51:49;;;;;;;3.20;2.60;;;17.20;99.90;;;;;;6188988;23;20204;-91
2021/09/09 07:54:22;;;;;;;4.00;2.63;;;17.10;99.90;;;;;;6195427;23;20700;-91
2021/09/09 07:56:54;;;;;;;4.43;2.57;;;17.00;99.90;;;;;;6217643;23;20486;-91
2021/09/09 07:59:26;;;;;;;5.97;2.70;;;17.00;99.90;;;;;;6193695;23;20172;-91
2021/09/09 08:01:57;;;;;;;3.23;2.53;;;17.00;99.90;;;;;;6222049;23;20180;-92
2021/09/09 08:04:28;;;;;;;3.57;2.63;;;16.90;99.90;;;;;;6194308;23;20248;-91
2021/09/09 08:06:59;;;;;;;2.80;2.33;;;16.90;99.90;;;;;;6218603;23;20227;-91
2021/09/09 08:09:32;;;;;;;2.60;2.20;;;16.90;99.90;;;;;;6219759;23;20199;-90
2021/09/09 08:12:03;;;;;;;2.70;2.50;;;16.90;99.90;;;;;;6219328;23;20196;-92
2021/09/09 08:14:34;;;;;;;3.77;2.70;;;16.90;99.90;;;;;;6219068;23;20169;-92
2021/09/09 08:17:05;;;;;;;5.40;3.00;;;16.80;99.90;;;;;;6218070;23;20179;-91
2021/09/09 08:19:36;;;;;;;3.10;2.60;;;16.80;99.90;;;;;;6226639;23;20545;-91
2021/09/09 08:22:08;;;;;;;3.73;2.67;;;16.70;99.90;;;;;;6203927;23;20328;-92
2021/09/09 08:24:40;;;;;;;4.20;2.83;;;16.70;99.90;;;;;;6232422;23;20184;-93
2021/09/09 08:27:11;;;;;;;5.07;2.10;;;16.70;99.90;;;;;;6219985;23;20498;-92
2021/09/09 08:29:42;;;;;;;3.10;2.67;;;16.60;99.90;;;;;;6221857;23;20271;-92
2021/09/09 08:32:13;;;;;;;3.27;2.30;;;16.60;99.90;;;;;;6222869;23;20179;-92
2021/09/09 08:34:44;;;;;;;4.27;2.30;;;16.60;99.90;;;;;;6223949;23;20168;-91
2021/09/09 08:37:15;;;;;;;5.20;2.40;;;16.60;99.90;;;;;;6222115;23;20176;-92
2021/09/09 08:39:48;;;;;;;3.10;2.33;;;16.60;99.90;;;;;;6221458;23;20169;-92
2021/09/09 08:42:19;;;;;;;3.53;2.80;;;16.60;99.90;;;;;;6221892;23;20491;-92
2021/09/09 08:44:50;;;;;;;3.80;2.70;;;16.60;99.90;;;;;;6222649;23;20168;-92
2021/09/09 08:47:22;;;;;;;3.53;2.53;;;16.60;99.90;;;;;;6194993;23;20176;-91
2021/09/09 08:49:54;;;;;;;3.63;2.50;;;16.60;99.90;;;;;;6222336;23;20677;-91
2021/09/09 08:52:25;;;;;;;4.33;2.73;;;16.50;99.90;;;;;;6195592;23;20682;-90
2021/09/09 08:54:59;;;;;;;2.90;2.47;;;16.50;99.90;;;;;;6189678;23;20232;-92
2021/09/09 08:57:32;;;;;;;3.33;2.50;;;16.40;99.90;;;;;;6189703;23;20170;-91
2021/09/09 09:00:04;;;;;;;4.93;2.50;;;16.30;99.90;;;;;;6189487;23;20179;-91
2021/09/09 09:02:51;;;;;;;4.60;2.70;;;16.30;99.90;;;;;;6190806;23;20177;-91
2021/09/09 09:05:22;;;;;;;4.77;2.53;;;16.30;99.90;;;;;;6190619;23;20260;-91
2021/09/09 09:08:01;;;;;;;3.50;2.63;;;16.30;99.90;;;;;;6190020;23;20216;-91
2021/09/09 09:10:34;;;;;;;4.97;2.73;;;16.20;99.90;;;;;;6190825;23;20212;-92
2021/09/09 09:13:06;;;;;;;2.40;2.20;;;16.20;99.90;;;;;;6194885;23;20196;-92
2021/09/09 09:15:36;;;;;;;2.93;2.47;;;16.30;99.90;;;;;;6190298;23;20253;-91
2021/09/09 09:18:10;;;;;;;4.30;2.83;;;16.20;99.90;;;;;;6189953;23;20520;-91
2021/09/09 09:20:44;;;;;;;3.13;2.50;;;16.10;99.90;;;;;;6190589;23;20223;-91
2021/09/09 09:23:20;;;;;;;3.17;2.43;;;16.10;99.90;;;;;;6191176;23;20172;-91
2021/09/09 09:25:56;;;;;;;3.73;2.80;;;16.00;99.90;;;;;;6190074;23;20212;-91
2021/09/09 09:28:44;;;;;;;3.10;2.50;;;16.00;99.90;;;;;;6200352;23;20183;-91
2021/09/09 09:31:17;;;;;;;3.20;2.53;;;15.90;99.90;;;;;;6212214;23;20193;-92
2021/09/09 09:33:50;;;;;;;3.17;2.57;;;15.90;99.90;;;;;;6211814;23;20204;-91
2021/09/09 09:36:24;;;;;;;3.43;2.37;;;15.90;99.90;;;;;;6191939;23;20176;-92
2021/09/09 09:39:08;;;;;;;4.57;3.13;;;15.90;99.90;;;;;;6191599;23;20197;-91
2021/09/09 09:41:43;;;;;;;3.87;2.70;;;15.90;99.90;;;;;;6191422;23;20196;-91
2021/09/09 09:44:29;;;;;;;3.43;2.33;;;15.90;99.90;;;;;;6192044;23;20208;-92
2021/09/09 09:47:19;;;;;;;3.10;2.80;;;15.90;99.90;;;;;;6188697;23;20188;-91
2021/09/09 09:49:53;;;;;;;4.17;2.70;;;15.90;99.90;;;;;;6190284;23;20272;-92
2021/09/09 09:52:26;;;;;;;3.27;2.80;;;15.80;99.90;;;;;;6193964;23;20180;-90
2021/09/09 09:54:58;;;;;;;3.50;2.80;;;15.90;99.90;;;;;;6206704;23;20180;-91
2021/09/09 09:57:33;;;;;;;4.27;3.30;;;15.80;99.90;;;;;;6195252;23;20165;-91
2021/09/09 10:00:05;;;;;;;3.53;2.77;;;15.80;99.90;;;;;;6220888;23;20168;-91
2021/09/09 10:02:35;;;;;;;5.50;2.50;;;15.70;99.90;;;;;;6223182;23;20192;-91
2021/09/09 10:05:08;;;;;;;4.10;3.10;;;15.70;99.90;;;;;;6222401;23;20176;-91
2021/09/09 10:07:40;;;;;;;2.93;2.43;;;15.70;99.90;;;;;;6192929;23;20187;-91
2021/09/09 10:10:13;;;;;;;4.30;2.97;;;15.80;99.90;;;;;;6220082;23;20215;-90
2021/09/09 10:12:49;;;;;;;4.07;2.83;;;15.80;99.90;;;;;;6220518;23;20161;-93
2021/09/09 10:15:22;;;;;;;3.90;2.90;;;15.80;99.90;;;;;;6220640;23;20222;-91
2021/09/09 10:18:01;;;;;;;2.97;2.60;;;15.70;99.90;;;;;;6218274;23;20615;-90
2021/09/09 10:20:34;;;;;;;3.60;2.80;;;15.70;99.90;;;;;;6220326;23;20628;-91
2021/09/09 10:23:06;;;;;;;3.97;3.07;;;15.70;99.90;;;;;;6219898;23;20180;-90
2021/09/09 10:25:48;;;;;;;2.80;2.50;;;15.60;99.90;;;;;;6220611;23;20231;-91
2021/09/09 10:28:43;;;;;;;5.33;2.67;;;15.70;99.90;;;;;;6220491;23;20176;-91
2021/09/09 10:31:15;;;;;;;5.13;2.80;;;15.60;99.90;;;;;;6220003;23;20513;-91
2021/09/09 10:33:47;;;;;;;3.50;2.90;;;15.60;99.90;;;;;;6222087;23;20240;-91
2021/09/09 10:36:42;;;;;;;4.53;2.80;;;15.60;99.90;;;;;;6219648;23;20165;-91
2021/09/09 10:39:15;;;;;;;3.47;2.57;;;15.60;99.90;;;;;;6220971;23;20173;-91
2021/09/09 10:41:46;;;;;;;4.20;2.97;;;15.60;99.90;;;;;;6221626;23;20165;-91
2021/09/09 10:44:18;;;;;;;4.20;2.90;;;15.50;99.90;;;;;;6223322;23;20638;-91
2021/09/09 10:46:49;;;;;;;3.70;3.00;;;15.50;99.90;;;;;;6221795;23;20179;-92
2021/09/09 10:49:22;;;;;;;3.00;2.40;;;15.50;99.90;;;;;;6224006;23;20183;-91
2021/09/09 10:52:10;;;;;;;3.20;2.90;;;15.50;99.90;;;;;;6226132;23;20184;-91
2021/09/09 10:55:04;;;;;;;3.23;2.60;;;15.50;99.90;;;;;;6236090;23;20203;-91
2021/09/09 10:57:35;;;;;;;3.03;2.70;;;15.50;99.90;;;;;;6224267;23;20243;-91
2021/09/09 11:00:16;;;;;;;3.37;2.70;;;15.50;99.90;;;;;;6203009;23;20242;-91
2021/09/09 11:02:47;;;;;;;4.33;2.70;;;15.40;99.90;;;;;;6216090;23;20164;-90
2021/09/09 11:05:18;;;;;;;3.87;2.87;;;15.40;99.90;;;;;;6241107;23;20172;-91
2021/09/09 11:07:51;;;;;;;3.23;2.50;;;15.30;99.90;;;;;;6239502;23;20160;-91
2021/09/09 11:10:38;;;;;;;3.10;2.40;;;15.30;99.90;;;;;;6227052;23;20187;-91
2021/09/09 11:13:25;;;;;;;2.60;2.40;;;15.30;99.90;;;;;;6225123;23;20169;-91
2021/09/09 11:15:58;;;;;;;3.10;2.80;;;15.30;99.90;;;;;;6225930;23;20179;-91
2021/09/09 11:18:31;;;;;;;2.80;2.53;;;15.30;99.90;;;;;;6220314;23;20188;-91
2021/09/09 11:21:06;;;;;;;4.60;2.53;;;15.30;99.90;;;;;;6220818;23;20569;-91
2021/09/09 11:23:38;;;;;;;8.20;2.90;;;15.30;99.90;;;;;;6221727;23;20199;-91
2021/09/09 11:26:14;;;;;;;2.90;2.60;;;15.30;99.90;;;;;;6220776;23;20168;-91
2021/09/09 11:28:50;;;;;;;2.80;2.50;;;15.30;99.90;;;;;;6219925;23;20251;-92
2021/09/09 11:31:25;;;;;;;3.50;2.53;;;15.30;99.90;;;;;;6219886;23;20200;-91
2021/09/09 11:33:58;;;;;;;3.37;2.70;;;15.20;99.90;;;;;;6221289;23;20179;-91
2021/09/09 11:36:30;;;;;;;4.77;2.33;;;15.20;99.90;;;;;;6221619;23;20180;-91
2021/09/09 11:39:05;;;;;;;4.17;2.83;;;15.20;99.90;;;;;;6195975;23;20176;-91
2021/09/09 11:41:52;;;;;;;5.07;2.70;;;15.20;99.90;;;;;;6216087;23;20164;-91
2021/09/09 11:44:28;;;;;;;3.47;2.80;;;15.10;99.90;;;;;;6240826;23;20164;-89
2021/09/09 11:47:02;;;;;;;3.07;2.47;;;15.10;99.90;;;;;;6240955;23;20164;-92
2021/09/09 11:49:34;;;;;;;4.43;2.77;;;15.10;99.90;;;;;;6241506;23;20164;-92
2021/09/09 11:52:08;;;;;;;5.03;2.90;;;15.00;99.90;;;;;;6240046;23;20207;-91
2021/09/09 11:54:39;;;;;;;6.53;3.30;;;15.00;99.90;;;;;;6237045;23;20184;-91
2021/09/09 11:57:13;;;;;;;4.17;3.27;;;15.00;99.90;;;;;;6234607;23;20184;-91
2021/09/09 11:59:50;;;;;;;4.17;2.73;;;15.00;99.90;;;;;;6198802;23;20842;-91
2021/09/09 12:02:25;;;;;;;3.43;3.07;;;14.90;99.90;;;;;;6221727;23;20164;-91
2021/09/09 12:04:57;;;;;;;5.00;3.07;;;14.90;99.90;;;;;;6219518;23;20549;-91
2021/09/09 12:07:31;;;;;;;4.23;3.07;;;14.90;99.90;;;;;;6219558;23;20175;-92
2021/09/09 12:10:03;;;;;;;4.53;3.10;;;14.80;99.90;;;;;;6219107;23;20173;-91
2021/09/09 12:12:35;;;;;;;4.33;3.00;;;14.80;99.90;;;;;;6219750;23;20188;-91
2021/09/09 12:15:08;;;;;;;7.07;2.70;;;14.90;99.90;;;;;;6219665;23;20215;-91
2021/09/09 12:17:43;;;;;;;3.90;3.00;;;14.80;99.90;;;;;;6218843;23;20180;-90
2021/09/09 12:20:24;;;;;;;4.90;3.10;;;14.90;99.90;;;;;;6219932;23;20175;-91
2021/09/09 12:22:56;;;;;;;3.10;2.70;;;14.90;99.90;;;;;;6219609;23;20207;-91
2021/09/09 12:25:34;;;;;;;3.80;3.40;;;14.90;99.90;;;;;;6193928;23;20181;-92
2021/09/09 12:28:10;;;;;;;4.73;3.03;;;14.90;99.90;;;;;;6219037;23;20172;-91
2021/09/09 12:30:47;;;;;;;3.33;2.90;;;14.80;99.90;;;;;;6220405;23;20169;-91
2021/09/09 12:33:21;;;;;;;4.07;2.60;;;14.80;99.90;;;;;;6193959;23;20169;-92
2021/09/09 12:36:07;;;;;;;4.63;2.67;;;14.80;99.90;;;;;;6218205;23;20243;-91
2021/09/09 12:38:41;;;;;;;5.27;3.40;;;14.70;99.90;;;;;;6219298;23;20627;-91
2021/09/09 12:41:29;;;;;;;3.63;2.80;;;14.70;99.90;;;;;;6219146;23;20247;-90
2021/09/09 12:44:18;;;;;;;3.33;2.80;;;14.70;99.90;;;;;;6219380;23;20482;-91
2021/09/09 12:46:50;;;;;;;5.90;2.80;;;14.70;99.90;;;;;;6218423;23;20228;-89
2021/09/09 12:49:32;;;;;;;4.33;2.90;;;14.70;99.90;;;;;;6219674;23;20169;-91
2021/09/09 12:52:11;;;;;;;4.60;3.60;;;14.70;99.90;;;;;;6219737;23;20311;-91
2021/09/09 12:54:46;;;;;;;4.47;2.83;;;14.60;99.90;;;;;;6219025;23;20215;-90
2021/09/09 12:57:32;;;;;;;3.23;2.90;;;14.70;99.90;;;;;;6217461;23;20644;-90
2021/09/09 13:00:04;;;;;;;4.37;3.03;;;14.70;99.90;;;;;;6193584;23;20173;-90
2021/09/09 13:02:35;;;;;;;3.80;3.10;;;14.60;99.90;;;;;;6218858;23;20599;-90
2021/09/09 13:05:09;;;;;;;6.37;3.93;;;14.60;99.90;;;;;;6219058;23;20243;-93
2021/09/09 13:07:40;;;;;;;6.17;3.47;;;14.60;99.90;;;;;;6217157;23;20543;-90
2021/09/09 13:10:11;;;;;;;3.43;2.83;;;14.60;99.90;;;;;;6220019;23;20172;-91
2021/09/09 13:12:43;;;;;;;4.30;3.00;;;14.60;99.90;;;;;;6220321;23;20200;-91
2021/09/09 13:15:14;;;;;;;5.97;3.20;;;14.60;99.90;;;;;;6220550;23;20562;-91
2021/09/09 13:17:45;;;;;;;4.33;2.73;;;14.60;99.90;;;;;;6222519;23;20168;-91
2021/09/09 13:20:20;;;;;;;5.00;3.10;;;14.60;99.90;;;;;;6221121;23;20198;-91
2021/09/09 13:22:51;;;;;;;4.23;2.90;;;14.60;99.90;;;;;;6197832;23;20183;-91
2021/09/09 13:25:22;;;;;;;4.20;3.47;;;14.50;99.90;;;;;;6222812;23;20506;-91
2021/09/09 13:27:53;;;;;;;3.40;2.87;;;14.60;99.90;;;;;;6221500;23;20184;-91
2021/09/09 13:30:24;;;;;;;5.47;3.23;;;14.50;99.90;;;;;;6221535;23;20172;-91
2021/09/09 13:32:56;;;;;;;3.47;3.07;;;14.60;99.90;;;;;;6222927;23;20216;-91
2021/09/09 13:35:29;;;;;;;4.43;3.27;;;14.60;99.90;;;;;;6199133;23;20179;-91